Terminal Aerodrome Forecast
Issued by NWS Cleveland, OH

Home | Current Version | Previous Version | Text Only | Print | Product List | Glossary On
Versions: 1 2 3 4 5 6 7 8 9 10 11 12 13 14 15 16 17
805
FTUS41 KCLE 111741
TAFCAK
TAF
KCAK 111741Z 1118/1218 18008KT P6SM SCT025 OVC060
      TEMPO 1121/1123 4SM -SHSN BKN025
     FM120400 21008KT P6SM VCSH BKN035
     FM120600 26012KT 4SM -SN OVC025
     FM120800 30015G25KT 2SM -SN OVC015
     FM121400 31018G28KT 6SM -SHSN OVC025=

USA.gov is the U.S. government's official web portal to all federal, state and local government web resources and services.